createdAt,value
2023-04-30T00:02:15.629Z,1.60
2023-04-30T00:04:45.324Z,1.73
2023-04-30T00:07:13.502Z,2.20
2023-04-30T00:09:41.616Z,2.20
2023-04-30T00:12:09.889Z,1.97
2023-04-30T00:14:38.024Z,1.80
2023-04-30T00:17:06.133Z,2.10
2023-04-30T00:19:34.388Z,2.00
2023-04-30T00:22:05.521Z,2.10
2023-04-30T00:24:33.738Z,2.20
2023-04-30T00:27:01.933Z,2.20
2023-04-30T00:29:30.026Z,1.80
2023-04-30T00:32:01.623Z,1.93
2023-04-30T00:34:29.807Z,2.10
2023-04-30T00:36:57.966Z,1.90
2023-04-30T00:39:27.527Z,2.03
2023-04-30T00:41:55.674Z,1.93
2023-04-30T00:44:23.837Z,1.90
2023-04-30T00:46:52.082Z,2.00
2023-04-30T00:49:20.288Z,1.73
2023-04-30T00:51:48.904Z,2.00
2023-04-30T00:54:17.713Z,1.97
2023-04-30T00:56:47.780Z,2.17
2023-04-30T00:59:16.057Z,1.73
2023-04-30T01:01:44.590Z,1.77
2023-04-30T01:04:13.568Z,1.30
2023-04-30T01:06:43.279Z,2.00
2023-04-30T01:09:11.969Z,1.90
2023-04-30T01:11:54.020Z,1.90
2023-04-30T01:14:28.849Z,2.00
2023-04-30T01:17:06.703Z,1.80
2023-04-30T01:19:41.971Z,1.87
2023-04-30T01:22:13.453Z,2.23
2023-04-30T01:24:55.381Z,1.93
2023-04-30T01:27:41.600Z,2.40
2023-04-30T01:30:12.987Z,1.70
2023-04-30T01:32:41.584Z,1.90
2023-04-30T01:35:10.433Z,1.70
2023-04-30T01:37:48.393Z,1.47
2023-04-30T01:40:25.539Z,1.73
2023-04-30T01:43:02.666Z,1.30
2023-04-30T01:45:49.167Z,1.83
2023-04-30T01:48:29.152Z,1.80
2023-04-30T01:51:06.880Z,1.33
2023-04-30T01:53:42.112Z,1.50
2023-04-30T01:56:17.024Z,1.87
2023-04-30T01:58:47.191Z,1.57
2023-04-30T02:01:29.316Z,1.60
2023-04-30T02:03:57.727Z,1.93
2023-04-30T02:06:28.469Z,1.60
2023-04-30T02:09:02.460Z,1.57
2023-04-30T02:11:30.826Z,2.03
2023-04-30T02:13:58.980Z,1.60
2023-04-30T02:16:29.170Z,1.37
2023-04-30T02:18:57.341Z,1.53
2023-04-30T02:21:25.868Z,1.40
2023-04-30T02:23:53.992Z,1.90
2023-04-30T02:26:22.261Z,1.63
2023-04-30T02:28:50.411Z,1.70
2023-04-30T02:31:18.620Z,1.80
2023-04-30T02:33:48.700Z,1.57
2023-04-30T02:36:16.914Z,1.53
2023-04-30T02:38:45.025Z,2.23
2023-04-30T02:41:13.222Z,1.30
2023-04-30T02:43:41.332Z,1.93
2023-04-30T02:46:09.547Z,1.70
2023-04-30T02:48:37.669Z,1.60
2023-04-30T02:51:07.407Z,1.50
2023-04-30T02:53:35.588Z,1.80
2023-04-30T02:56:03.810Z,1.70
2023-04-30T02:58:31.975Z,1.37
2023-04-30T03:01:00.469Z,1.77
2023-04-30T03:03:29.060Z,1.23
2023-04-30T03:05:59.542Z,1.53
2023-04-30T03:08:29.186Z,1.50
2023-04-30T03:10:57.366Z,1.90
2023-04-30T03:13:26.740Z,2.00
2023-04-30T03:15:59.678Z,1.90
2023-04-30T03:18:28.431Z,1.90
2023-04-30T03:20:56.714Z,1.40
2023-04-30T03:23:25.000Z,2.20
2023-04-30T03:25:54.786Z,1.73
2023-04-30T03:28:23.508Z,1.30
2023-04-30T03:30:52.135Z,1.80
2023-04-30T03:33:20.419Z,1.77
2023-04-30T03:35:49.739Z,1.73
2023-04-30T03:38:17.912Z,1.37
2023-04-30T03:40:46.034Z,2.00
2023-04-30T03:43:15.598Z,1.60
2023-04-30T03:45:44.194Z,1.70
2023-04-30T03:48:12.495Z,1.67
2023-04-30T03:50:40.738Z,1.50
2023-04-30T03:53:08.908Z,1.60
2023-04-30T03:55:37.195Z,1.63
2023-04-30T03:58:05.832Z,1.90
2023-04-30T04:00:35.594Z,1.70
2023-04-30T04:03:04.660Z,2.03
2023-04-30T04:05:33.574Z,1.67
2023-04-30T04:08:01.759Z,1.77
2023-04-30T04:10:30.330Z,1.73
2023-04-30T04:12:58.508Z,1.70
2023-04-30T04:15:27.440Z,1.93
2023-04-30T04:17:56.979Z,1.70
2023-04-30T04:20:25.230Z,1.77
2023-04-30T04:22:53.388Z,1.80
2023-04-30T04:25:25.088Z,2.00
2023-04-30T04:27:53.459Z,2.10
2023-04-30T04:30:21.925Z,1.90
2023-04-30T04:32:53.917Z,1.90
2023-04-30T04:35:23.619Z,1.73
2023-04-30T04:37:51.763Z,1.57
2023-04-30T04:40:20.045Z,1.87
2023-04-30T04:42:51.326Z,1.43
2023-04-30T04:45:20.565Z,1.57
2023-04-30T04:47:50.927Z,1.83
2023-04-30T04:50:19.737Z,1.70
2023-04-30T04:52:49.275Z,2.10
2023-04-30T04:55:17.755Z,1.90
2023-04-30T04:57:45.917Z,2.17
2023-04-30T05:00:14.407Z,2.00
2023-04-30T05:02:43.200Z,1.77
2023-04-30T05:05:12.048Z,2.27
2023-04-30T05:07:40.680Z,1.73
2023-04-30T05:10:11.753Z,1.97
2023-04-30T05:12:39.903Z,1.80
2023-04-30T05:15:09.080Z,2.23
2023-04-30T05:17:37.318Z,1.80
2023-04-30T05:20:07.269Z,2.20
2023-04-30T05:22:35.577Z,2.57
2023-04-30T05:25:04.090Z,2.17
2023-04-30T05:27:33.624Z,2.17
2023-04-30T05:30:01.875Z,2.83
2023-04-30T05:32:30.992Z,2.00
2023-04-30T05:34:59.228Z,1.93
2023-04-30T05:37:27.561Z,2.63
2023-04-30T05:39:55.967Z,1.90
2023-04-30T05:42:24.388Z,2.27
2023-04-30T05:44:54.134Z,2.20
2023-04-30T05:47:22.261Z,1.73
2023-04-30T05:49:50.433Z,2.33
2023-04-30T05:52:18.601Z,2.90
2023-04-30T05:54:49.959Z,1.90
2023-04-30T05:57:18.379Z,2.43
2023-04-30T05:59:46.619Z,2.10
2023-04-30T06:02:16.273Z,2.17
2023-04-30T06:04:44.593Z,2.40
2023-04-30T06:07:13.219Z,1.90
2023-04-30T06:09:41.394Z,2.70
2023-04-30T06:12:09.659Z,2.40
2023-04-30T06:14:38.079Z,2.77
2023-04-30T06:17:06.400Z,2.37
2023-04-30T06:19:35.983Z,2.20
2023-04-30T06:22:04.163Z,2.10
2023-04-30T06:24:32.362Z,2.80
2023-04-30T06:27:01.239Z,2.30
2023-04-30T06:29:29.409Z,2.17
2023-04-30T06:31:57.635Z,2.17
2023-04-30T06:34:25.867Z,1.90
2023-04-30T06:36:55.527Z,1.97
2023-04-30T06:39:23.756Z,1.93
2023-04-30T06:41:52.128Z,2.10
2023-04-30T06:44:20.305Z,2.20
2023-04-30T06:46:48.479Z,2.67
2023-04-30T06:49:16.616Z,2.20
2023-04-30T06:51:44.826Z,2.70
2023-04-30T06:54:14.400Z,2.80
2023-04-30T06:56:43.883Z,2.20
2023-04-30T06:59:12.334Z,2.10
2023-04-30T07:01:41.058Z,2.30
2023-04-30T07:04:09.364Z,2.13
2023-04-30T07:06:37.797Z,2.53
2023-04-30T07:09:06.028Z,2.20
2023-04-30T07:11:35.544Z,1.90
2023-04-30T07:14:03.647Z,2.37
2023-04-30T07:16:34.132Z,2.87
2023-04-30T07:19:02.351Z,2.20
2023-04-30T07:21:32.736Z,2.67
2023-04-30T07:24:01.000Z,2.70
2023-04-30T07:26:29.158Z,2.60
2023-04-30T07:28:58.779Z,3.40
2023-04-30T07:31:27.611Z,2.27
2023-04-30T07:33:56.049Z,2.80
2023-04-30T07:36:24.637Z,2.30
2023-04-30T07:38:53.060Z,2.60
2023-04-30T07:41:21.863Z,2.43
2023-04-30T07:43:50.070Z,2.67
2023-04-30T07:46:19.715Z,2.40
2023-04-30T07:48:49.554Z,2.43
2023-04-30T07:51:17.976Z,2.40
2023-04-30T07:53:47.078Z,3.23
2023-04-30T07:56:15.305Z,2.80
2023-04-30T07:58:43.814Z,3.00
2023-04-30T08:01:12.001Z,3.60
2023-04-30T08:03:41.602Z,2.47
2023-04-30T08:06:09.878Z,2.60
2023-04-30T08:08:38.105Z,2.80
2023-04-30T08:11:06.459Z,2.97
2023-04-30T08:13:34.664Z,2.73
2023-04-30T08:16:03.006Z,2.40
2023-04-30T08:18:31.506Z,2.60
2023-04-30T08:21:01.620Z,3.10
2023-04-30T08:23:29.823Z,3.10
2023-04-30T08:25:58.047Z,3.00
2023-04-30T08:28:26.213Z,2.67
2023-04-30T08:30:54.340Z,3.20
2023-04-30T08:33:22.663Z,3.33
2023-04-30T08:35:51.015Z,2.80
2023-04-30T08:38:20.678Z,2.60
2023-04-30T08:40:58.333Z,2.93
2023-04-30T08:43:27.017Z,2.90
2023-04-30T08:45:56.091Z,3.07
2023-04-30T08:48:26.187Z,2.70
2023-04-30T08:50:54.432Z,3.00
2023-04-30T08:53:24.870Z,2.60
2023-04-30T08:55:53.413Z,3.20
2023-04-30T08:58:21.675Z,2.80
2023-04-30T09:00:49.880Z,2.47
2023-04-30T09:03:18.311Z,3.20
2023-04-30T09:05:46.765Z,3.00
2023-04-30T09:08:19.588Z,2.77
2023-04-30T09:10:49.886Z,2.50
2023-04-30T09:13:18.124Z,2.87
2023-04-30T09:15:46.798Z,2.93
2023-04-30T09:18:17.752Z,3.10
2023-04-30T09:20:57.172Z,2.43
2023-04-30T09:23:25.428Z,2.70
2023-04-30T09:25:55.153Z,3.00
2023-04-30T09:28:25.242Z,2.33
2023-04-30T09:30:54.144Z,2.37
2023-04-30T09:33:22.408Z,2.70
2023-04-30T09:35:50.695Z,2.80
2023-04-30T09:38:29.796Z,2.77
2023-04-30T09:41:01.101Z,2.53
2023-04-30T09:43:29.683Z,2.27
2023-04-30T09:46:00.306Z,2.60
2023-04-30T09:48:29.501Z,2.70
2023-04-30T09:50:57.831Z,2.47
2023-04-30T09:53:26.087Z,2.30
2023-04-30T09:55:54.941Z,3.03
2023-04-30T09:58:29.247Z,2.47
2023-04-30T10:01:00.261Z,3.00
2023-04-30T10:03:28.947Z,2.40
2023-04-30T10:05:57.286Z,1.83
2023-04-30T10:08:28.934Z,2.20
2023-04-30T10:11:01.401Z,2.23
2023-04-30T10:13:36.028Z,2.40
2023-04-30T10:16:13.120Z,2.27
2023-04-30T10:18:44.464Z,2.30
2023-04-30T10:21:15.637Z,2.20
2023-04-30T10:23:44.530Z,2.50
2023-04-30T10:26:13.432Z,2.80
2023-04-30T10:28:43.444Z,2.03
2023-04-30T10:31:13.081Z,2.70
2023-04-30T10:33:49.939Z,2.47
2023-04-30T10:36:27.203Z,2.47
2023-04-30T10:38:56.070Z,2.90
2023-04-30T10:41:25.617Z,2.57
2023-04-30T10:43:59.993Z,2.43
2023-04-30T10:46:30.129Z,2.00
2023-04-30T10:49:00.199Z,2.03
2023-04-30T10:51:47.164Z,2.30
2023-04-30T10:54:18.838Z,2.47
2023-04-30T10:56:48.592Z,1.83
2023-04-30T10:59:18.168Z,3.07
2023-04-30T11:02:07.340Z,2.63
2023-04-30T11:04:35.581Z,3.17
2023-04-30T11:07:10.418Z,2.23
2023-04-30T11:09:42.080Z,2.60
2023-04-30T11:12:15.690Z,2.33
2023-04-30T11:14:46.746Z,2.53
2023-04-30T11:17:23.587Z,2.90
2023-04-30T11:19:53.635Z,2.97
2023-04-30T11:22:24.663Z,2.27
2023-04-30T11:25:04.734Z,2.60
2023-04-30T11:27:34.231Z,3.00
2023-04-30T11:30:06.272Z,2.83
2023-04-30T11:32:35.831Z,2.80
2023-04-30T11:35:04.959Z,3.27
2023-04-30T11:37:35.577Z,3.17
2023-04-30T11:40:06.512Z,3.17
2023-04-30T11:42:35.620Z,3.70
2023-04-30T11:45:09.981Z,3.20
2023-04-30T11:47:45.907Z,3.00
2023-04-30T11:50:15.388Z,3.33
2023-04-30T11:52:49.844Z,3.50
2023-04-30T11:55:19.315Z,3.30
2023-04-30T11:57:49.303Z,3.63
2023-04-30T12:00:21.064Z,3.30
2023-04-30T12:02:50.869Z,4.17
2023-04-30T12:05:20.723Z,3.70
2023-04-30T12:07:50.219Z,4.23
2023-04-30T12:10:20.816Z,4.40
2023-04-30T12:12:51.311Z,4.33
2023-04-30T12:15:26.719Z,4.50
2023-04-30T12:17:56.602Z,5.00
2023-04-30T12:20:26.043Z,4.90
2023-04-30T12:22:54.457Z,4.43
2023-04-30T12:25:23.662Z,4.87
2023-04-30T12:27:53.494Z,4.73
2023-04-30T12:30:25.340Z,5.20
2023-04-30T12:32:58.661Z,5.17
2023-04-30T12:35:31.143Z,5.73
2023-04-30T12:38:04.493Z,5.60
2023-04-30T12:40:33.064Z,5.07
2023-04-30T12:43:02.385Z,6.30
2023-04-30T12:45:48.665Z,5.50
2023-04-30T12:48:17.577Z,6.90
2023-04-30T12:50:50.517Z,5.67
2023-04-30T12:53:25.554Z,7.33
2023-04-30T12:56:10.788Z,5.90
2023-04-30T12:58:39.883Z,6.47
2023-04-30T13:01:13.692Z,6.03
2023-04-30T13:03:42.517Z,5.63
2023-04-30T13:06:11.203Z,7.33
2023-04-30T13:08:50.380Z,6.83
2023-04-30T13:11:26.122Z,6.40
2023-04-30T13:13:55.873Z,5.77
2023-04-30T13:16:26.251Z,7.57
2023-04-30T13:18:54.912Z,6.03
2023-04-30T13:21:24.744Z,6.80
2023-04-30T13:23:54.558Z,6.90
2023-04-30T13:26:24.085Z,6.47
2023-04-30T13:28:52.307Z,6.33
2023-04-30T13:31:20.637Z,6.10
2023-04-30T13:33:50.779Z,6.97
2023-04-30T13:36:19.179Z,6.03
2023-04-30T13:38:47.476Z,6.27
2023-04-30T13:41:16.144Z,5.83
2023-04-30T13:43:46.306Z,6.90
2023-04-30T13:46:15.088Z,6.40
2023-04-30T13:48:43.678Z,5.70
2023-04-30T13:51:13.265Z,6.03
2023-04-30T13:53:41.508Z,6.00
2023-04-30T13:56:10.255Z,6.23
2023-04-30T13:58:38.548Z,5.70
2023-04-30T14:01:07.033Z,5.63
2023-04-30T14:03:35.282Z,5.70
2023-04-30T14:06:03.539Z,6.07
2023-04-30T14:08:33.820Z,6.50
2023-04-30T14:11:02.172Z,5.60
2023-04-30T14:13:30.656Z,5.83
2023-04-30T14:15:58.935Z,6.20
2023-04-30T14:18:27.218Z,6.20
2023-04-30T14:20:55.401Z,5.90
2023-04-30T14:23:23.585Z,6.17
2023-04-30T14:25:54.156Z,6.40
2023-04-30T14:28:22.540Z,7.20
2023-04-30T14:30:50.716Z,5.50
2023-04-30T14:33:18.909Z,6.10
2023-04-30T14:35:47.518Z,5.50
2023-04-30T14:38:16.376Z,6.67
2023-04-30T14:40:45.707Z,6.40
2023-04-30T14:43:15.323Z,5.60
2023-04-30T14:45:44.718Z,5.77
2023-04-30T14:48:13.503Z,5.77
2023-04-30T14:50:42.699Z,4.90
2023-04-30T14:53:11.544Z,6.23
2023-04-30T14:55:40.691Z,5.63
2023-04-30T14:58:08.859Z,6.03
2023-04-30T15:00:38.390Z,5.23
2023-04-30T15:03:06.690Z,6.40
2023-04-30T15:05:35.018Z,6.70
2023-04-30T15:08:03.199Z,5.00
2023-04-30T15:10:31.374Z,5.20
2023-04-30T15:12:59.554Z,6.40
2023-04-30T15:15:29.120Z,5.27
2023-04-30T15:18:00.380Z,5.63
2023-04-30T15:20:28.580Z,4.80
2023-04-30T15:22:56.850Z,5.47
2023-04-30T15:25:25.384Z,5.20
2023-04-30T15:27:53.664Z,5.20
2023-04-30T15:30:22.659Z,4.77
2023-04-30T15:32:50.951Z,4.83
2023-04-30T15:35:20.535Z,4.80
2023-04-30T15:37:48.654Z,5.37
2023-04-30T15:40:16.782Z,4.80
2023-04-30T15:42:45.156Z,5.60
2023-04-30T15:45:13.373Z,4.83
2023-04-30T15:47:41.774Z,6.07
2023-04-30T15:50:10.541Z,4.93
2023-04-30T15:52:40.352Z,5.37
2023-04-30T15:55:09.640Z,5.90
2023-04-30T15:57:37.736Z,5.80
2023-04-30T16:00:07.120Z,5.27
2023-04-30T16:02:40.028Z,5.43
2023-04-30T16:05:08.933Z,4.97
2023-04-30T16:07:39.036Z,4.70
2023-04-30T16:10:09.708Z,5.70
2023-04-30T16:12:38.015Z,4.50
2023-04-30T16:15:07.273Z,5.00
2023-04-30T16:17:35.513Z,4.33
2023-04-30T16:20:04.158Z,5.07
2023-04-30T16:22:32.334Z,5.13
2023-04-30T16:25:01.810Z,5.13
2023-04-30T16:27:30.109Z,4.53
2023-04-30T16:29:58.536Z,5.00
2023-04-30T16:32:27.209Z,5.13
2023-04-30T16:34:55.411Z,4.63
2023-04-30T16:37:23.557Z,5.40
2023-04-30T16:39:51.701Z,4.70
2023-04-30T16:42:21.254Z,4.37
2023-04-30T16:44:49.402Z,5.47
2023-04-30T16:47:19.992Z,4.67
2023-04-30T16:49:48.126Z,5.57
2023-04-30T16:52:16.363Z,4.90
2023-04-30T16:54:44.494Z,5.30
2023-04-30T16:57:12.620Z,4.80
2023-04-30T16:59:42.131Z,4.90
2023-04-30T17:02:10.348Z,4.17
2023-04-30T17:04:38.577Z,5.43
2023-04-30T17:07:07.416Z,4.03
2023-04-30T17:09:36.741Z,4.63
2023-04-30T17:12:05.495Z,4.50
2023-04-30T17:14:33.698Z,4.70
2023-04-30T17:17:03.280Z,5.00
2023-04-30T17:19:31.459Z,4.37
2023-04-30T17:21:59.967Z,5.27
2023-04-30T17:24:28.335Z,4.97
2023-04-30T17:26:56.547Z,4.33
2023-04-30T17:29:24.761Z,3.80
2023-04-30T17:31:53.071Z,4.70
2023-04-30T17:34:22.670Z,4.70
2023-04-30T17:36:51.087Z,4.00
2023-04-30T17:39:20.092Z,4.70
2023-04-30T17:41:48.677Z,4.33
2023-04-30T17:44:17.045Z,4.67
2023-04-30T17:46:45.513Z,4.23
2023-04-30T17:49:13.722Z,4.37
2023-04-30T17:51:43.309Z,3.93
2023-04-30T17:54:11.542Z,3.87
2023-04-30T17:56:40.578Z,4.73
2023-04-30T17:59:09.068Z,3.93
2023-04-30T18:01:38.162Z,4.50
2023-04-30T18:04:09.252Z,4.70
2023-04-30T18:06:37.504Z,4.73
2023-04-30T18:09:07.032Z,4.00
2023-04-30T18:11:35.250Z,4.53
2023-04-30T18:14:04.746Z,4.13
2023-04-30T18:16:34.462Z,4.80
2023-04-30T18:19:02.676Z,3.87
2023-04-30T18:21:30.873Z,3.70
2023-04-30T18:23:59.222Z,4.60
2023-04-30T18:26:28.739Z,4.70
2023-04-30T18:28:57.760Z,3.90
2023-04-30T18:31:26.047Z,3.70
2023-04-30T18:33:54.261Z,3.50
2023-04-30T18:36:23.569Z,4.07
2023-04-30T18:38:52.061Z,3.90
2023-04-30T18:41:21.108Z,3.27
2023-04-30T18:43:50.646Z,3.17
2023-04-30T18:46:18.858Z,3.30
2023-04-30T18:48:47.039Z,4.90
2023-04-30T18:51:15.190Z,3.90
2023-04-30T18:53:45.266Z,3.90
2023-04-30T18:56:14.510Z,4.00
2023-04-30T18:58:46.746Z,3.63
2023-04-30T19:01:16.479Z,3.13
2023-04-30T19:03:44.813Z,3.50
2023-04-30T19:06:14.254Z,4.20
2023-04-30T19:08:44.910Z,4.03
2023-04-30T19:11:14.509Z,3.80
2023-04-30T19:13:42.773Z,3.40
2023-04-30T19:16:10.963Z,3.53
2023-04-30T19:18:40.721Z,3.90
2023-04-30T19:21:09.390Z,3.90
2023-04-30T19:23:38.492Z,3.40
2023-04-30T19:26:06.737Z,3.40
2023-04-30T19:28:34.912Z,3.37
2023-04-30T19:31:04.054Z,3.20
2023-04-30T19:33:36.619Z,4.03
2023-04-30T19:36:06.870Z,3.63
2023-04-30T19:38:35.050Z,3.70
2023-04-30T19:41:03.300Z,3.63
2023-04-30T19:43:31.523Z,3.40
2023-04-30T19:46:01.993Z,3.83
2023-04-30T19:48:31.352Z,3.30
2023-04-30T19:50:59.546Z,3.50
2023-04-30T19:53:29.576Z,3.77
2023-04-30T19:55:59.848Z,3.23
2023-04-30T19:58:28.083Z,3.77
2023-04-30T20:00:56.648Z,3.37
2023-04-30T20:03:25.626Z,2.93
2023-04-30T20:05:54.134Z,3.40
2023-04-30T20:08:23.322Z,3.10
2023-04-30T20:10:52.929Z,3.63
2023-04-30T20:13:22.662Z,3.37
2023-04-30T20:15:50.957Z,3.80
2023-04-30T20:18:19.214Z,2.77
2023-04-30T20:20:48.100Z,3.27
2023-04-30T20:23:17.786Z,3.33
2023-04-30T20:25:47.051Z,3.00
2023-04-30T20:28:18.152Z,3.03
2023-04-30T20:30:48.003Z,3.00
2023-04-30T20:33:17.646Z,2.97
2023-04-30T20:35:47.409Z,2.80
2023-04-30T20:38:18.916Z,2.90
2023-04-30T20:40:48.351Z,3.03
2023-04-30T20:43:19.305Z,3.20
2023-04-30T20:45:48.366Z,3.10
2023-04-30T20:48:17.130Z,2.87
2023-04-30T20:50:45.732Z,3.50
2023-04-30T20:53:15.109Z,3.60
2023-04-30T20:55:43.756Z,3.07
2023-04-30T20:58:12.308Z,2.83
2023-04-30T21:00:41.983Z,3.50
2023-04-30T21:03:10.558Z,2.83
2023-04-30T21:05:40.850Z,3.40
2023-04-30T21:08:09.109Z,3.00
2023-04-30T21:10:37.483Z,3.20
2023-04-30T21:13:06.468Z,3.00
2023-04-30T21:15:36.465Z,3.10
2023-04-30T21:18:06.146Z,3.43
2023-04-30T21:20:34.300Z,3.87
2023-04-30T21:23:03.362Z,3.27
2023-04-30T21:25:31.763Z,3.50
2023-04-30T21:28:00.298Z,2.53
2023-04-30T21:30:29.221Z,2.57
2023-04-30T21:32:58.848Z,2.90
2023-04-30T21:35:32.918Z,2.90
2023-04-30T21:38:01.343Z,3.40
2023-04-30T21:40:33.593Z,3.37
2023-04-30T21:43:01.860Z,2.90
2023-04-30T21:45:30.793Z,2.50
2023-04-30T21:47:59.136Z,3.07
2023-04-30T21:50:29.229Z,2.53
2023-04-30T21:52:57.383Z,3.10
2023-04-30T21:55:26.653Z,3.20
2023-04-30T21:57:56.773Z,3.00
2023-04-30T22:00:25.282Z,2.87
2023-04-30T22:02:53.428Z,2.63
2023-04-30T22:05:22.001Z,3.23
2023-04-30T22:07:51.516Z,2.40
2023-04-30T22:10:19.713Z,2.43
2023-04-30T22:12:48.218Z,2.43
2023-04-30T22:15:16.813Z,2.27
2023-04-30T22:17:46.149Z,2.97
2023-04-30T22:20:14.929Z,2.90
2023-04-30T22:22:43.117Z,2.63
2023-04-30T22:25:12.798Z,3.13
2023-04-30T22:27:40.995Z,2.60
2023-04-30T22:30:09.978Z,2.77
2023-04-30T22:32:38.652Z,2.83
2023-04-30T22:35:08.173Z,2.70
2023-04-30T22:37:38.578Z,2.60
2023-04-30T22:40:08.173Z,2.80
2023-04-30T22:42:37.855Z,3.10
2023-04-30T22:45:07.115Z,2.80
2023-04-30T22:47:35.440Z,2.73
2023-04-30T22:50:04.804Z,2.50
2023-04-30T22:52:33.244Z,2.40
2023-04-30T22:55:01.778Z,2.27
2023-04-30T22:57:29.987Z,2.83
2023-04-30T22:59:59.555Z,2.93
2023-04-30T23:02:28.650Z,2.43
2023-04-30T23:04:56.995Z,2.47
2023-04-30T23:07:25.276Z,2.80
2023-04-30T23:09:53.589Z,2.53
2023-04-30T23:12:22.490Z,2.70
2023-04-30T23:14:50.946Z,2.60
2023-04-30T23:17:20.605Z,2.60
2023-04-30T23:19:48.817Z,2.77
2023-04-30T23:22:17.867Z,2.40
2023-04-30T23:24:46.094Z,2.17
2023-04-30T23:27:14.241Z,3.13
2023-04-30T23:29:42.974Z,2.83
2023-04-30T23:32:11.284Z,2.60
2023-04-30T23:34:40.863Z,2.33
2023-04-30T23:37:09.144Z,2.70
2023-04-30T23:39:37.286Z,2.80
2023-04-30T23:42:05.914Z,2.20
2023-04-30T23:44:34.014Z,2.03
2023-04-30T23:47:02.381Z,2.73
2023-04-30T23:49:30.572Z,2.30
2023-04-30T23:52:00.162Z,2.50
2023-04-30T23:54:28.752Z,2.83
2023-04-30T23:56:56.973Z,2.00
2023-04-30T23:59:25.858Z,2.27
